sensor_id;sensor_type;location;lat;lon;timestamp;P1;durP1;ratioP1;P2;durP2;ratioP2
80963;SDS011;70425;59.322;13.486;2023-09-08T00:02:44;17.60;;;10.27;;
80963;SDS011;70425;59.322;13.486;2023-09-08T00:05:32;15.93;;;10.80;;
80963;SDS011;70425;59.322;13.486;2023-09-08T00:08:21;16.90;;;10.67;;
80963;SDS011;70425;59.322;13.486;2023-09-08T00:11:10;20.43;;;11.30;;
80963;SDS011;70425;59.322;13.486;2023-09-08T00:13:58;16.07;;;10.00;;
80963;SDS011;70425;59.322;13.486;2023-09-08T00:19:35;16.57;;;10.33;;
80963;SDS011;70425;59.322;13.486;2023-09-08T00:22:24;20.30;;;9.93;;
80963;SDS011;70425;59.322;13.486;2023-09-08T00:25:07;16.03;;;10.50;;
80963;SDS011;70425;59.322;13.486;2023-09-08T00:27:56;17.47;;;10.47;;
80963;SDS011;70425;59.322;13.486;2023-09-08T00:30:45;16.13;;;10.20;;
80963;SDS011;70425;59.322;13.486;2023-09-08T00:33:34;19.50;;;11.83;;
80963;SDS011;70425;59.322;13.486;2023-09-08T00:36:23;20.10;;;12.20;;
80963;SDS011;70425;59.322;13.486;2023-09-08T00:39:21;17.53;;;11.63;;
80963;SDS011;70425;59.322;13.486;2023-09-08T00:42:09;19.60;;;11.93;;
80963;SDS011;70425;59.322;13.486;2023-09-08T00:44:58;22.67;;;11.17;;
80963;SDS011;70425;59.322;13.486;2023-09-08T00:47:46;20.53;;;12.20;;
80963;SDS011;70425;59.322;13.486;2023-09-08T00:50:34;20.97;;;12.03;;
80963;SDS011;70425;59.322;13.486;2023-09-08T00:56:07;17.63;;;11.70;;
80963;SDS011;70425;59.322;13.486;2023-09-08T00:58:58;21.23;;;11.63;;
80963;SDS011;70425;59.322;13.486;2023-09-08T01:01:48;20.37;;;11.97;;
80963;SDS011;70425;59.322;13.486;2023-09-08T01:04:35;28.17;;;13.10;;
80963;SDS011;70425;59.322;13.486;2023-09-08T01:26:16;20.37;;;12.60;;
80963;SDS011;70425;59.322;13.486;2023-09-08T01:29:07;20.67;;;11.80;;
80963;SDS011;70425;59.322;13.486;2023-09-08T01:31:58;18.63;;;12.23;;
80963;SDS011;70425;59.322;13.486;2023-09-08T01:34:46;19.70;;;10.50;;
80963;SDS011;70425;59.322;13.486;2023-09-08T01:37:40;25.03;;;11.43;;
80963;SDS011;70425;59.322;13.486;2023-09-08T01:40:29;17.87;;;11.30;;
80963;SDS011;70425;59.322;13.486;2023-09-08T01:43:18;20.60;;;11.73;;
80963;SDS011;70425;59.322;13.486;2023-09-08T01:46:06;20.00;;;13.17;;
80963;SDS011;70425;59.322;13.486;2023-09-08T01:48:58;21.20;;;12.90;;
80963;SDS011;70425;59.322;13.486;2023-09-08T01:51:48;19.23;;;11.90;;
80963;SDS011;70425;59.322;13.486;2023-09-08T01:54:36;22.27;;;12.07;;
80963;SDS011;70425;59.322;13.486;2023-09-08T01:57:25;23.53;;;12.70;;
80963;SDS011;70425;59.322;13.486;2023-09-08T02:11:10;32.23;;;14.60;;
80963;SDS011;70425;59.322;13.486;2023-09-08T02:16:55;26.07;;;14.77;;
80963;SDS011;70425;59.322;13.486;2023-09-08T02:19:44;25.90;;;13.87;;
80963;SDS011;70425;59.322;13.486;2023-09-08T02:22:32;24.70;;;13.87;;
80963;SDS011;70425;59.322;13.486;2023-09-08T02:25:21;24.73;;;13.90;;
80963;SDS011;70425;59.322;13.486;2023-09-08T02:28:11;23.40;;;12.47;;
80963;SDS011;70425;59.322;13.486;2023-09-08T02:31:00;23.60;;;13.90;;
80963;SDS011;70425;59.322;13.486;2023-09-08T02:33:48;20.57;;;13.50;;
80963;SDS011;70425;59.322;13.486;2023-09-08T02:36:36;26.33;;;14.47;;
80963;SDS011;70425;59.322;13.486;2023-09-08T02:39:25;23.10;;;13.63;;
80963;SDS011;70425;59.322;13.486;2023-09-08T02:42:13;25.17;;;14.47;;
80963;SDS011;70425;59.322;13.486;2023-09-08T03:02:43;29.80;;;17.10;;
80963;SDS011;70425;59.322;13.486;2023-09-08T03:05:32;23.17;;;14.67;;
80963;SDS011;70425;59.322;13.486;2023-09-08T03:08:20;23.63;;;13.47;;
80963;SDS011;70425;59.322;13.486;2023-09-08T03:11:12;24.60;;;13.90;;
80963;SDS011;70425;59.322;13.486;2023-09-08T03:14:00;23.30;;;13.23;;
80963;SDS011;70425;59.322;13.486;2023-09-08T03:16:49;25.27;;;13.10;;
80963;SDS011;70425;59.322;13.486;2023-09-08T03:19:38;23.43;;;12.40;;
80963;SDS011;70425;59.322;13.486;2023-09-08T03:22:27;19.20;;;12.57;;
80963;SDS011;70425;59.322;13.486;2023-09-08T03:25:16;25.63;;;13.10;;
80963;SDS011;70425;59.322;13.486;2023-09-08T03:28:05;27.10;;;13.33;;
80963;SDS011;70425;59.322;13.486;2023-09-08T03:30:54;24.33;;;13.37;;
80963;SDS011;70425;59.322;13.486;2023-09-08T03:33:42;29.00;;;14.63;;
80963;SDS011;70425;59.322;13.486;2023-09-08T03:36:32;37.07;;;15.90;;
80963;SDS011;70425;59.322;13.486;2023-09-08T03:39:22;37.63;;;16.53;;
80963;SDS011;70425;59.322;13.486;2023-09-08T03:42:11;38.00;;;16.07;;
80963;SDS011;70425;59.322;13.486;2023-09-08T03:45:00;30.13;;;14.20;;
80963;SDS011;70425;59.322;13.486;2023-09-08T04:00:25;18.07;;;11.20;;
80963;SDS011;70425;59.322;13.486;2023-09-08T04:03:10;17.67;;;10.53;;
80963;SDS011;70425;59.322;13.486;2023-09-08T04:05:59;18.83;;;10.43;;
80963;SDS011;70425;59.322;13.486;2023-09-08T04:08:48;18.07;;;11.00;;
80963;SDS011;70425;59.322;13.486;2023-09-08T04:11:37;17.70;;;11.17;;
80963;SDS011;70425;59.322;13.486;2023-09-08T04:14:25;26.17;;;12.60;;
80963;SDS011;70425;59.322;13.486;2023-09-08T04:28:53;23.47;;;12.93;;
80963;SDS011;70425;59.322;13.486;2023-09-08T04:45:09;25.70;;;12.10;;
80963;SDS011;70425;59.322;13.486;2023-09-08T04:51:50;25.70;;;13.10;;
80963;SDS011;70425;59.322;13.486;2023-09-08T04:54:40;29.57;;;14.07;;
80963;SDS011;70425;59.322;13.486;2023-09-08T04:57:29;24.77;;;13.70;;
80963;SDS011;70425;59.322;13.486;2023-09-08T05:00:17;29.00;;;14.10;;
80963;SDS011;70425;59.322;13.486;2023-09-08T05:03:06;25.87;;;12.97;;
80963;SDS011;70425;59.322;13.486;2023-09-08T05:05:54;23.17;;;13.70;;
80963;SDS011;70425;59.322;13.486;2023-09-08T13:31:51;24.67;;;12.07;;
80963;SDS011;70425;59.322;13.486;2023-09-08T14:27:26;26.07;;;13.20;;
80963;SDS011;70425;59.322;13.486;2023-09-08T14:59:12;17.67;;;10.50;;
80963;SDS011;70425;59.322;13.486;2023-09-08T15:04:49;15.97;;;10.77;;
80963;SDS011;70425;59.322;13.486;2023-09-08T15:07:38;14.97;;;10.80;;
80963;SDS011;70425;59.322;13.486;2023-09-08T15:10:28;19.87;;;11.30;;
80963;SDS011;70425;59.322;13.486;2023-09-08T15:23:56;17.40;;;10.30;;
80963;SDS011;70425;59.322;13.486;2023-09-08T15:29:37;17.57;;;10.60;;
80963;SDS011;70425;59.322;13.486;2023-09-08T15:32:27;17.03;;;11.17;;
80963;SDS011;70425;59.322;13.486;2023-09-08T15:35:15;18.63;;;11.77;;
80963;SDS011;70425;59.322;13.486;2023-09-08T15:38:05;19.07;;;12.03;;
80963;SDS011;70425;59.322;13.486;2023-09-08T15:54:46;15.37;;;10.90;;
80963;SDS011;70425;59.322;13.486;2023-09-08T15:57:59;16.30;;;11.90;;
80963;SDS011;70425;59.322;13.486;2023-09-08T16:00:48;16.67;;;11.10;;
80963;SDS011;70425;59.322;13.486;2023-09-08T16:03:36;17.60;;;11.80;;
80963;SDS011;70425;59.322;13.486;2023-09-08T16:06:26;17.03;;;12.23;;
80963;SDS011;70425;59.322;13.486;2023-09-08T16:09:15;20.80;;;11.73;;
80963;SDS011;70425;59.322;13.486;2023-09-08T16:12:04;15.70;;;11.47;;
80963;SDS011;70425;59.322;13.486;2023-09-08T16:14:53;15.70;;;11.60;;
80963;SDS011;70425;59.322;13.486;2023-09-08T16:28:09;15.97;;;11.27;;
80963;SDS011;70425;59.322;13.486;2023-09-08T16:34:27;20.87;;;13.40;;
80963;SDS011;70425;59.322;13.486;2023-09-08T16:37:17;22.37;;;14.37;;
80963;SDS011;70425;59.322;13.486;2023-09-08T16:40:26;23.27;;;13.87;;
80963;SDS011;70425;59.322;13.486;2023-09-08T16:43:16;20.87;;;13.43;;
80963;SDS011;70425;59.322;13.486;2023-09-08T16:46:05;20.60;;;13.43;;
80963;SDS011;70425;59.322;13.486;2023-09-08T16:48:53;22.33;;;13.63;;
80963;SDS011;70425;59.322;13.486;2023-09-08T16:51:42;24.93;;;14.30;;
80963;SDS011;70425;59.322;13.486;2023-09-08T16:54:36;24.27;;;13.57;;
80963;SDS011;70425;59.322;13.486;2023-09-08T16:57:26;22.70;;;13.87;;
80963;SDS011;70425;59.322;13.486;2023-09-08T17:00:20;22.97;;;13.77;;
80963;SDS011;70425;59.322;13.486;2023-09-08T17:03:10;22.60;;;13.27;;
80963;SDS011;70425;59.322;13.486;2023-09-08T17:06:00;20.23;;;13.53;;
80963;SDS011;70425;59.322;13.486;2023-09-08T17:08:51;21.17;;;13.23;;
80963;SDS011;70425;59.322;13.486;2023-09-08T17:11:41;19.20;;;12.73;;
80963;SDS011;70425;59.322;13.486;2023-09-08T17:14:31;18.13;;;11.90;;
80963;SDS011;70425;59.322;13.486;2023-09-08T17:17:20;18.47;;;12.80;;
80963;SDS011;70425;59.322;13.486;2023-09-08T17:20:11;18.80;;;12.13;;
80963;SDS011;70425;59.322;13.486;2023-09-08T17:23:00;20.63;;;13.00;;
80963;SDS011;70425;59.322;13.486;2023-09-08T17:25:47;21.23;;;13.47;;
80963;SDS011;70425;59.322;13.486;2023-09-08T17:28:37;22.27;;;12.70;;
80963;SDS011;70425;59.322;13.486;2023-09-08T17:31:26;18.00;;;12.87;;
80963;SDS011;70425;59.322;13.486;2023-09-08T17:34:20;24.93;;;14.00;;
80963;SDS011;70425;59.322;13.486;2023-09-08T17:37:10;23.97;;;13.43;;
80963;SDS011;70425;59.322;13.486;2023-09-08T17:39:59;24.40;;;14.07;;
80963;SDS011;70425;59.322;13.486;2023-09-08T17:42:50;24.93;;;14.83;;
80963;SDS011;70425;59.322;13.486;2023-09-08T17:45:39;27.57;;;15.50;;
80963;SDS011;70425;59.322;13.486;2023-09-08T18:19:03;29.30;;;14.57;;
80963;SDS011;70425;59.322;13.486;2023-09-08T18:21:52;28.67;;;15.13;;
80963;SDS011;70425;59.322;13.486;2023-09-08T18:24:41;31.23;;;15.60;;
80963;SDS011;70425;59.322;13.486;2023-09-08T18:27:30;26.83;;;15.00;;
80963;SDS011;70425;59.322;13.486;2023-09-08T18:30:19;31.80;;;16.53;;
80963;SDS011;70425;59.322;13.486;2023-09-08T18:33:07;30.30;;;15.17;;
80963;SDS011;70425;59.322;13.486;2023-09-08T18:35:57;37.67;;;17.47;;
80963;SDS011;70425;59.322;13.486;2023-09-08T18:38:46;35.30;;;17.37;;
80963;SDS011;70425;59.322;13.486;2023-09-08T18:55:03;36.10;;;17.47;;
80963;SDS011;70425;59.322;13.486;2023-09-08T19:00:44;39.90;;;18.80;;
80963;SDS011;70425;59.322;13.486;2023-09-08T19:03:34;38.63;;;18.80;;
80963;SDS011;70425;59.322;13.486;2023-09-08T19:06:23;43.23;;;18.83;;
80963;SDS011;70425;59.322;13.486;2023-09-08T19:09:12;42.13;;;19.67;;
80963;SDS011;70425;59.322;13.486;2023-09-08T19:12:01;41.17;;;20.03;;
80963;SDS011;70425;59.322;13.486;2023-09-08T19:14:51;46.50;;;19.40;;
80963;SDS011;70425;59.322;13.486;2023-09-08T19:17:41;39.10;;;18.83;;
80963;SDS011;70425;59.322;13.486;2023-09-08T19:20:31;45.23;;;19.90;;
80963;SDS011;70425;59.322;13.486;2023-09-08T19:49:05;52.87;;;21.37;;
80963;SDS011;70425;59.322;13.486;2023-09-08T19:51:54;82.33;;;24.77;;
80963;SDS011;70425;59.322;13.486;2023-09-08T19:54:44;68.10;;;24.83;;
80963;SDS011;70425;59.322;13.486;2023-09-08T19:57:33;90.57;;;26.10;;
80963;SDS011;70425;59.322;13.486;2023-09-08T20:00:23;84.47;;;25.83;;
80963;SDS011;70425;59.322;13.486;2023-09-08T20:03:16;99.00;;;27.03;;
80963;SDS011;70425;59.322;13.486;2023-09-08T20:06:05;92.83;;;27.03;;
80963;SDS011;70425;59.322;13.486;2023-09-08T20:08:54;93.40;;;25.37;;
80963;SDS011;70425;59.322;13.486;2023-09-08T20:11:43;104.90;;;25.30;;
80963;SDS011;70425;59.322;13.486;2023-09-08T20:14:31;96.23;;;24.57;;
80963;SDS011;70425;59.322;13.486;2023-09-08T20:17:20;163.10;;;25.57;;
80963;SDS011;70425;59.322;13.486;2023-09-08T20:20:09;244.50;;;29.83;;
80963;SDS011;70425;59.322;13.486;2023-09-08T20:22:58;425.77;;;35.53;;
80963;SDS011;70425;59.322;13.486;2023-09-08T20:25:48;132.03;;;26.63;;
80963;SDS011;70425;59.322;13.486;2023-09-08T20:28:37;133.07;;;28.67;;
80963;SDS011;70425;59.322;13.486;2023-09-08T20:31:25;167.53;;;29.97;;
80963;SDS011;70425;59.322;13.486;2023-09-08T20:34:14;115.87;;;28.37;;
80963;SDS011;70425;59.322;13.486;2023-09-08T20:37:03;106.83;;;26.37;;
80963;SDS011;70425;59.322;13.486;2023-09-08T20:39:52;259.63;;;30.40;;
80963;SDS011;70425;59.322;13.486;2023-09-08T20:42:41;232.20;;;26.17;;
80963;SDS011;70425;59.322;13.486;2023-09-08T20:45:31;777.30;;;37.07;;
80963;SDS011;70425;59.322;13.486;2023-09-08T20:48:21;226.20;;;27.67;;
80963;SDS011;70425;59.322;13.486;2023-09-08T20:51:10;179.30;;;27.47;;
80963;SDS011;70425;59.322;13.486;2023-09-08T20:54:01;741.97;;;40.77;;
80963;SDS011;70425;59.322;13.486;2023-09-08T20:56:49;500.17;;;35.77;;
80963;SDS011;70425;59.322;13.486;2023-09-08T21:26:12;357.33;;;24.27;;
80963;SDS011;70425;59.322;13.486;2023-09-08T21:54:15;389.83;;;32.63;;
80963;SDS011;70425;59.322;13.486;2023-09-08T21:57:05;350.00;;;30.40;;
80963;SDS011;70425;59.322;13.486;2023-09-08T21:59:55;714.70;;;37.40;;
80963;SDS011;70425;59.322;13.486;2023-09-08T22:02:43;560.10;;;31.83;;
80963;SDS011;70425;59.322;13.486;2023-09-08T22:05:33;362.57;;;28.87;;
80963;SDS011;70425;59.322;13.486;2023-09-08T22:08:21;303.93;;;25.63;;
80963;SDS011;70425;59.322;13.486;2023-09-08T22:11:10;306.53;;;23.10;;
80963;SDS011;70425;59.322;13.486;2023-09-08T22:13:58;374.50;;;24.57;;
80963;SDS011;70425;59.322;13.486;2023-09-08T22:16:47;508.60;;;31.20;;
80963;SDS011;70425;59.322;13.486;2023-09-08T22:19:35;298.37;;;24.50;;
80963;SDS011;70425;59.322;13.486;2023-09-08T22:22:25;621.40;;;33.53;;
80963;SDS011;70425;59.322;13.486;2023-09-08T22:25:12;332.93;;;26.67;;
80963;SDS011;70425;59.322;13.486;2023-09-08T22:28:00;549.33;;;33.00;;
80963;SDS011;70425;59.322;13.486;2023-09-08T22:30:50;543.20;;;35.07;;
80963;SDS011;70425;59.322;13.486;2023-09-08T22:33:39;577.00;;;36.67;;
80963;SDS011;70425;59.322;13.486;2023-09-08T22:36:28;743.00;;;38.90;;
80963;SDS011;70425;59.322;13.486;2023-09-08T22:39:16;223.60;;;24.83;;
80963;SDS011;70425;59.322;13.486;2023-09-08T22:42:05;335.70;;;26.60;;
80963;SDS011;70425;59.322;13.486;2023-09-08T22:47:40;343.90;;;24.67;;
80963;SDS011;70425;59.322;13.486;2023-09-08T22:50:29;505.73;;;28.93;;
80963;SDS011;70425;59.322;13.486;2023-09-08T22:53:19;247.63;;;22.40;;
80963;SDS011;70425;59.322;13.486;2023-09-08T22:56:07;172.97;;;19.73;;
80963;SDS011;70425;59.322;13.486;2023-09-08T22:58:56;172.87;;;20.53;;
80963;SDS011;70425;59.322;13.486;2023-09-08T23:01:44;213.20;;;19.93;;
80963;SDS011;70425;59.322;13.486;2023-09-08T23:04:33;182.37;;;19.70;;
80963;SDS011;70425;59.322;13.486;2023-09-08T23:07:20;623.10;;;32.50;;
80963;SDS011;70425;59.322;13.486;2023-09-08T23:10:09;293.17;;;25.40;;
80963;SDS011;70425;59.322;13.486;2023-09-08T23:12:57;480.93;;;28.43;;
80963;SDS011;70425;59.322;13.486;2023-09-08T23:15:46;308.60;;;25.60;;
80963;SDS011;70425;59.322;13.486;2023-09-08T23:18:37;352.60;;;25.00;;
80963;SDS011;70425;59.322;13.486;2023-09-08T23:21:26;199.13;;;22.53;;
80963;SDS011;70425;59.322;13.486;2023-09-08T23:24:14;272.70;;;23.00;;
80963;SDS011;70425;59.322;13.486;2023-09-08T23:27:03;222.70;;;21.03;;
80963;SDS011;70425;59.322;13.486;2023-09-08T23:29:52;308.30;;;25.27;;
80963;SDS011;70425;59.322;13.486;2023-09-08T23:32:41;168.93;;;20.53;;
80963;SDS011;70425;59.322;13.486;2023-09-08T23:35:30;230.00;;;20.03;;
80963;SDS011;70425;59.322;13.486;2023-09-08T23:38:19;174.93;;;20.03;;
80963;SDS011;70425;59.322;13.486;2023-09-08T23:41:12;276.97;;;23.57;;
80963;SDS011;70425;59.322;13.486;2023-09-08T23:44:01;105.37;;;19.60;;
80963;SDS011;70425;59.322;13.486;2023-09-08T23:46:48;228.40;;;23.00;;
80963;SDS011;70425;59.322;13.486;2023-09-08T23:49:38;361.07;;;27.37;;
80963;SDS011;70425;59.322;13.486;2023-09-08T23:52:27;404.80;;;27.20;;
80963;SDS011;70425;59.322;13.486;2023-09-08T23:55:15;167.43;;;22.07;;
80963;SDS011;70425;59.322;13.486;2023-09-08T23:58:04;331.23;;;24.30;;
